createdAt,value
2022-08-27T00:01:19.578Z,1.47
2022-08-27T00:03:46.013Z,1.52
2022-08-27T00:06:12.438Z,1.52
2022-08-27T00:08:39.989Z,1.56
2022-08-27T00:11:06.386Z,1.41
2022-08-27T00:13:32.778Z,1.40
2022-08-27T00:15:59.167Z,1.48
2022-08-27T00:18:25.550Z,1.31
2022-08-27T00:20:51.941Z,1.58
2022-08-27T00:23:18.334Z,1.58
2022-08-27T00:25:44.728Z,1.63
2022-08-27T00:28:11.203Z,1.46
2022-08-27T00:30:37.733Z,1.57
2022-08-27T00:33:05.918Z,1.55
2022-08-27T00:35:32.309Z,1.60
2022-08-27T00:37:58.704Z,1.35
2022-08-27T00:40:25.101Z,1.60
2022-08-27T00:42:51.511Z,1.41
2022-08-27T00:45:17.913Z,1.52
2022-08-27T00:47:44.312Z,1.44
2022-08-27T00:50:10.709Z,1.45
2022-08-27T00:52:37.111Z,1.36
2022-08-27T00:55:03.497Z,1.65
2022-08-27T00:57:29.876Z,1.55
2022-08-27T00:59:56.270Z,1.52
2022-08-27T01:02:22.710Z,1.58
2022-08-27T01:04:49.131Z,1.57
2022-08-27T01:07:15.637Z,1.50
2022-08-27T01:09:42.057Z,1.58
2022-08-27T01:12:08.457Z,1.50
2022-08-27T01:14:34.842Z,1.62
2022-08-27T01:17:01.241Z,1.64
2022-08-27T01:19:27.625Z,1.51
2022-08-27T01:21:54.012Z,1.59
2022-08-27T01:24:20.392Z,1.64
2022-08-27T01:26:46.781Z,1.54
2022-08-27T01:29:13.170Z,1.53
2022-08-27T01:31:39.610Z,1.60
2022-08-27T01:34:06.059Z,1.50
2022-08-27T01:36:32.447Z,1.63
2022-08-27T01:38:58.842Z,1.61
2022-08-27T01:41:25.215Z,1.49
2022-08-27T01:43:51.814Z,1.55
2022-08-27T01:46:18.255Z,1.52
2022-08-27T01:48:44.687Z,1.49
2022-08-27T01:51:11.073Z,1.52
2022-08-27T01:53:37.463Z,1.51
2022-08-27T01:56:03.862Z,1.49
2022-08-27T01:58:30.247Z,1.61
2022-08-27T02:00:56.936Z,1.70
2022-08-27T02:03:23.386Z,1.74
2022-08-27T02:05:49.776Z,1.77
2022-08-27T02:08:16.168Z,1.62
2022-08-27T02:10:42.567Z,1.62
2022-08-27T02:13:08.977Z,1.70
2022-08-27T02:15:35.362Z,1.69
2022-08-27T02:18:01.758Z,1.74
2022-08-27T02:20:29.403Z,1.57
2022-08-27T02:22:55.911Z,1.50
2022-08-27T02:25:22.297Z,1.74
2022-08-27T02:27:48.702Z,1.72
2022-08-27T02:30:15.118Z,1.56
2022-08-27T02:32:42.576Z,1.77
2022-08-27T02:35:08.967Z,1.76
2022-08-27T02:37:35.374Z,1.71
2022-08-27T02:40:01.863Z,1.52
2022-08-27T02:42:28.306Z,1.61
2022-08-27T02:44:54.702Z,1.72
2022-08-27T02:47:21.095Z,1.77
2022-08-27T02:49:47.474Z,1.66
2022-08-27T02:52:13.865Z,1.54
2022-08-27T02:54:40.692Z,1.75
2022-08-27T02:57:07.104Z,1.82
2022-08-27T02:59:33.495Z,1.69
2022-08-27T03:01:59.964Z,1.53
2022-08-27T03:04:26.477Z,1.63
2022-08-27T03:06:52.867Z,1.73
2022-08-27T03:09:19.261Z,1.55
2022-08-27T03:11:45.661Z,1.58
2022-08-27T03:14:12.061Z,1.77
2022-08-27T03:16:38.459Z,1.56
2022-08-27T03:19:04.850Z,1.45
2022-08-27T03:21:31.232Z,1.53
2022-08-27T03:23:57.631Z,1.68
2022-08-27T03:26:24.029Z,1.47
2022-08-27T03:28:50.433Z,1.73
2022-08-27T03:31:16.909Z,1.64
2022-08-27T03:33:43.330Z,1.65
2022-08-27T03:36:09.724Z,1.73
2022-08-27T03:38:36.111Z,1.54
2022-08-27T03:41:02.502Z,1.74
2022-08-27T03:43:28.910Z,1.73
2022-08-27T03:46:01.495Z,1.65
2022-08-27T03:48:28.486Z,1.68
2022-08-27T03:50:54.906Z,1.59
2022-08-27T03:53:21.299Z,1.64
2022-08-27T03:55:47.689Z,1.68
2022-08-27T03:58:14.072Z,1.63
2022-08-27T04:00:40.460Z,1.62
2022-08-27T04:03:06.900Z,1.58
2022-08-27T04:05:33.335Z,1.71
2022-08-27T04:07:59.729Z,1.65
2022-08-27T04:10:26.129Z,1.67
2022-08-27T04:13:01.159Z,1.62
2022-08-27T04:15:27.544Z,1.57
2022-08-27T04:17:53.940Z,1.60
2022-08-27T04:20:36.113Z,1.61
2022-08-27T04:23:02.831Z,1.57
2022-08-27T04:25:29.211Z,1.64
2022-08-27T04:27:55.597Z,1.49
2022-08-27T04:30:21.996Z,1.42
2022-08-27T04:32:48.404Z,1.52
2022-08-27T04:35:14.784Z,1.75
2022-08-27T04:37:41.187Z,1.49
2022-08-27T04:40:07.599Z,1.54
2022-08-27T04:42:34.044Z,1.52
2022-08-27T04:45:00.425Z,1.63
2022-08-27T04:47:26.810Z,1.67
2022-08-27T04:49:53.194Z,1.71
2022-08-27T04:52:19.602Z,1.69
2022-08-27T04:54:45.985Z,1.57
2022-08-27T04:57:12.377Z,1.59
2022-08-27T04:59:38.775Z,1.72
2022-08-27T05:02:05.238Z,1.47
2022-08-27T05:04:31.669Z,1.62
2022-08-27T05:06:58.074Z,1.67
2022-08-27T05:09:26.511Z,1.57
2022-08-27T05:11:53.376Z,1.49
2022-08-27T05:14:19.756Z,1.66
2022-08-27T05:16:46.144Z,1.57
2022-08-27T05:19:12.524Z,1.53
2022-08-27T05:21:38.910Z,1.79
2022-08-27T05:24:05.305Z,1.60
2022-08-27T05:26:31.704Z,1.51
2022-08-27T05:28:58.136Z,1.53
2022-08-27T05:31:24.579Z,1.51
2022-08-27T05:33:50.987Z,1.57
2022-08-27T05:36:17.775Z,1.59
2022-08-27T05:38:44.169Z,1.49
2022-08-27T05:41:10.557Z,1.44
2022-08-27T05:43:36.959Z,1.48
2022-08-27T05:46:03.402Z,1.64
2022-08-27T05:48:29.848Z,1.40
2022-08-27T05:50:56.275Z,1.69
2022-08-27T05:53:22.661Z,1.61
2022-08-27T05:55:49.065Z,1.73
2022-08-27T05:58:15.453Z,1.36
2022-08-27T06:00:41.860Z,1.41
2022-08-27T06:03:08.254Z,1.48
2022-08-27T06:05:34.683Z,1.73
2022-08-27T06:08:01.111Z,1.64
2022-08-27T06:10:27.546Z,1.56
2022-08-27T06:12:57.028Z,1.71
2022-08-27T06:15:23.629Z,1.55
2022-08-27T06:17:50.017Z,1.63
2022-08-27T06:20:16.414Z,1.47
2022-08-27T06:22:42.799Z,1.40
2022-08-27T06:25:09.186Z,1.58
2022-08-27T06:27:35.576Z,1.51
2022-08-27T06:30:01.990Z,1.54
2022-08-27T06:32:28.381Z,1.54
2022-08-27T06:34:54.760Z,1.37
2022-08-27T06:37:21.145Z,1.59
2022-08-27T06:39:47.523Z,1.64
2022-08-27T06:42:13.918Z,1.54
2022-08-27T06:44:40.310Z,1.55
2022-08-27T06:47:06.696Z,1.62
2022-08-27T06:49:33.090Z,1.43
2022-08-27T06:51:59.472Z,1.58
2022-08-27T06:54:25.865Z,1.48
2022-08-27T06:56:52.264Z,1.50
2022-08-27T06:59:18.687Z,1.43
2022-08-27T07:01:45.097Z,1.50
2022-08-27T07:04:11.554Z,1.58
2022-08-27T07:06:37.955Z,1.63
2022-08-27T07:09:04.336Z,1.74
2022-08-27T07:11:30.725Z,1.51
2022-08-27T07:13:57.135Z,1.58
2022-08-27T07:16:23.910Z,1.70
2022-08-27T07:18:50.405Z,1.65
2022-08-27T07:21:17.222Z,1.60
2022-08-27T07:23:43.604Z,1.52
2022-08-27T07:26:09.987Z,1.53
2022-08-27T07:28:36.384Z,1.44
2022-08-27T07:31:02.818Z,1.47
2022-08-27T07:33:29.240Z,1.61
2022-08-27T07:35:55.629Z,1.61
2022-08-27T07:38:22.018Z,1.48
2022-08-27T07:40:48.412Z,1.55
2022-08-27T07:43:14.832Z,1.62
2022-08-27T07:45:41.239Z,1.64
2022-08-27T07:48:07.712Z,1.70
2022-08-27T07:50:34.185Z,1.57
2022-08-27T07:53:00.582Z,1.66
2022-08-27T07:55:26.970Z,1.51
2022-08-27T07:57:53.369Z,1.66
2022-08-27T08:00:19.756Z,1.68
2022-08-27T08:02:46.245Z,1.55
2022-08-27T08:05:12.692Z,1.49
2022-08-27T08:07:39.087Z,1.77
2022-08-27T08:10:05.480Z,1.64
2022-08-27T08:12:31.871Z,1.81
2022-08-27T08:14:58.273Z,1.64
2022-08-27T08:17:24.697Z,1.60
2022-08-27T08:20:15.475Z,1.68
2022-08-27T08:22:37.507Z,1.76
2022-08-27T08:25:03.916Z,1.68
2022-08-27T08:27:30.306Z,1.56
2022-08-27T08:29:56.702Z,1.54
2022-08-27T08:32:23.094Z,1.61
2022-08-27T08:34:49.477Z,1.65
2022-08-27T08:37:15.878Z,1.52
2022-08-27T08:39:42.270Z,1.58
2022-08-27T08:42:08.669Z,1.63
2022-08-27T08:44:35.052Z,1.84
2022-08-27T08:47:01.443Z,1.74
2022-08-27T08:49:27.834Z,1.77
2022-08-27T08:51:54.290Z,1.70
2022-08-27T08:54:20.674Z,1.70
2022-08-27T08:56:47.064Z,1.77
2022-08-27T08:59:13.475Z,1.96
2022-08-27T09:01:39.944Z,1.67
2022-08-27T09:04:06.376Z,1.86
2022-08-27T09:06:32.793Z,1.65
2022-08-27T09:08:59.180Z,1.59
2022-08-27T09:11:25.582Z,1.79
2022-08-27T09:13:51.974Z,1.74
2022-08-27T09:16:18.455Z,1.72
2022-08-27T09:18:45.356Z,1.58
2022-08-27T09:21:11.905Z,1.88
2022-08-27T09:23:38.301Z,1.91
2022-08-27T09:26:04.694Z,1.73
2022-08-27T09:28:31.085Z,1.77
2022-08-27T09:30:57.510Z,1.70
2022-08-27T09:33:23.989Z,1.87
2022-08-27T09:35:50.390Z,1.98
2022-08-27T09:38:16.779Z,1.75
2022-08-27T09:40:43.218Z,1.76
2022-08-27T09:43:09.670Z,1.69
2022-08-27T09:45:36.122Z,1.77
2022-08-27T09:48:02.582Z,1.73
2022-08-27T09:50:28.975Z,1.95
2022-08-27T09:52:55.359Z,1.80
2022-08-27T09:55:21.763Z,1.81
2022-08-27T09:57:51.534Z,1.76
2022-08-27T10:00:17.952Z,1.68
2022-08-27T10:02:44.351Z,1.89
2022-08-27T10:05:10.749Z,1.84
2022-08-27T10:07:37.137Z,1.80
2022-08-27T10:10:03.533Z,1.68
2022-08-27T10:12:29.933Z,1.87
2022-08-27T10:14:56.335Z,1.88
2022-08-27T10:17:22.716Z,1.65
2022-08-27T10:19:49.114Z,1.74
2022-08-27T10:22:15.492Z,1.85
2022-08-27T10:24:41.889Z,1.89
2022-08-27T10:27:08.295Z,1.85
2022-08-27T10:29:34.697Z,1.97
2022-08-27T10:32:01.162Z,1.90
2022-08-27T10:34:27.569Z,1.89
2022-08-27T10:36:53.974Z,1.76
2022-08-27T10:39:20.368Z,2.03
2022-08-27T10:41:49.081Z,2.03
2022-08-27T10:44:15.460Z,1.88
2022-08-27T10:46:50.109Z,1.81
2022-08-27T10:49:20.932Z,1.93
2022-08-27T10:51:47.857Z,1.79
2022-08-27T10:54:14.268Z,1.93
2022-08-27T10:56:40.670Z,1.88
2022-08-27T10:59:07.049Z,1.97
2022-08-27T11:01:33.488Z,2.08
2022-08-27T11:03:59.925Z,1.93
2022-08-27T11:06:26.320Z,1.94
2022-08-27T11:08:52.708Z,1.95
2022-08-27T11:14:05.487Z,1.79
2022-08-27T11:16:31.911Z,1.84
2022-08-27T11:18:58.326Z,1.91
2022-08-27T11:21:24.709Z,2.01
2022-08-27T11:23:51.098Z,1.96
2022-08-27T11:26:17.503Z,1.93
2022-08-27T11:28:43.906Z,1.70
2022-08-27T11:31:10.345Z,1.85
2022-08-27T11:33:36.757Z,1.83
2022-08-27T11:36:03.156Z,1.72
2022-08-27T11:38:29.545Z,2.12
2022-08-27T11:40:55.946Z,1.93
2022-08-27T11:43:22.340Z,1.88
2022-08-27T11:45:48.739Z,1.77
2022-08-27T11:48:15.135Z,1.87
2022-08-27T11:50:41.512Z,1.71
2022-08-27T11:53:07.898Z,1.80
2022-08-27T11:55:34.303Z,1.82
2022-08-27T11:58:00.694Z,1.96
2022-08-27T12:00:27.082Z,1.80
2022-08-27T12:02:53.490Z,1.81
2022-08-27T12:05:24.397Z,1.85
2022-08-27T12:07:52.774Z,1.85
2022-08-27T12:10:19.165Z,1.92
2022-08-27T12:12:45.560Z,1.73
2022-08-27T12:15:11.949Z,1.82
2022-08-27T12:17:38.336Z,1.93
2022-08-27T12:20:04.764Z,1.93
2022-08-27T12:22:31.186Z,1.67
2022-08-27T12:24:57.582Z,1.90
2022-08-27T12:27:23.966Z,1.92
2022-08-27T12:29:50.342Z,2.06
2022-08-27T12:32:16.725Z,1.82
2022-08-27T12:34:43.134Z,1.70
2022-08-27T12:37:09.701Z,1.66
2022-08-27T12:39:36.094Z,1.65
2022-08-27T12:42:02.485Z,1.77
2022-08-27T12:44:28.884Z,2.11
2022-08-27T12:46:55.373Z,2.02
2022-08-27T12:49:37.959Z,1.73
2022-08-27T12:52:05.905Z,1.82
2022-08-27T12:54:32.300Z,1.57
2022-08-27T12:56:58.684Z,1.56
2022-08-27T12:59:25.075Z,1.79
2022-08-27T13:01:51.505Z,1.64
2022-08-27T13:04:17.958Z,1.58
2022-08-27T13:06:44.358Z,1.69
2022-08-27T13:09:10.745Z,1.73
2022-08-27T13:11:37.138Z,1.68
2022-08-27T13:14:03.539Z,1.54
2022-08-27T13:16:30.044Z,1.64
2022-08-27T13:18:56.509Z,1.57
2022-08-27T13:21:22.897Z,1.71
2022-08-27T13:23:49.291Z,1.53
2022-08-27T13:26:15.681Z,1.60
2022-08-27T13:28:42.078Z,1.56
2022-08-27T13:31:09.344Z,1.57
2022-08-27T13:33:35.901Z,1.55
2022-08-27T13:36:02.285Z,1.72
2022-08-27T13:38:28.683Z,1.63
2022-08-27T13:40:55.063Z,1.61
2022-08-27T13:43:21.468Z,1.70
2022-08-27T13:45:47.874Z,1.66
2022-08-27T13:48:14.279Z,1.75
2022-08-27T13:50:40.669Z,1.71
2022-08-27T13:53:07.075Z,1.55
2022-08-27T13:55:38.277Z,1.48
2022-08-27T13:58:04.727Z,1.72
2022-08-27T14:00:31.180Z,1.74
2022-08-27T14:02:57.610Z,1.62
2022-08-27T14:05:24.019Z,1.59
2022-08-27T14:07:50.416Z,1.60
2022-08-27T14:10:16.806Z,1.59
2022-08-27T14:12:43.197Z,1.61
2022-08-27T14:15:09.579Z,1.38
2022-08-27T14:17:35.960Z,1.50
2022-08-27T14:20:02.406Z,1.67
2022-08-27T14:22:30.740Z,1.84
2022-08-27T14:24:57.135Z,1.52
2022-08-27T14:27:23.516Z,1.44
2022-08-27T14:29:49.898Z,1.35
2022-08-27T14:32:16.280Z,1.55
2022-08-27T14:34:42.664Z,1.58
2022-08-27T14:37:09.050Z,1.45
2022-08-27T14:39:35.446Z,1.44
2022-08-27T14:42:01.840Z,1.54
2022-08-27T14:44:28.232Z,1.59
2022-08-27T14:46:55.048Z,1.60
2022-08-27T14:49:21.485Z,1.45
2022-08-27T14:51:47.870Z,1.56
2022-08-27T14:54:14.293Z,1.43
2022-08-27T14:56:41.005Z,1.58
2022-08-27T14:59:07.392Z,1.68
2022-08-27T15:01:33.850Z,1.53
2022-08-27T15:04:00.821Z,1.45
2022-08-27T15:06:27.219Z,1.41
2022-08-27T15:08:54.041Z,1.34
2022-08-27T15:11:20.439Z,1.55
2022-08-27T15:13:46.837Z,1.43
2022-08-27T15:16:13.318Z,1.32
2022-08-27T15:18:39.775Z,1.46
2022-08-27T15:21:06.162Z,1.64
2022-08-27T15:23:32.550Z,1.46
2022-08-27T15:25:58.946Z,1.51
2022-08-27T15:28:25.347Z,1.39
2022-08-27T15:30:51.755Z,1.37
2022-08-27T15:33:18.176Z,1.41
2022-08-27T15:35:44.594Z,1.32
2022-08-27T15:38:11.127Z,1.39
2022-08-27T15:40:37.665Z,1.45
2022-08-27T15:43:04.084Z,1.49
2022-08-27T15:45:30.487Z,1.52
2022-08-27T15:47:56.882Z,1.36
2022-08-27T15:50:23.270Z,1.32
2022-08-27T15:52:49.686Z,1.46
2022-08-27T15:55:16.038Z,1.47
2022-08-27T15:57:42.402Z,1.33
2022-08-27T16:00:08.755Z,1.26
2022-08-27T16:02:35.144Z,1.39
2022-08-27T16:05:01.552Z,1.29
2022-08-27T16:07:27.894Z,1.43
2022-08-27T16:09:54.242Z,1.35
2022-08-27T16:12:26.946Z,1.49
2022-08-27T16:14:54.030Z,1.27
2022-08-27T16:17:20.391Z,1.33
2022-08-27T16:19:46.748Z,1.33
2022-08-27T16:22:13.109Z,1.44
2022-08-27T16:24:39.463Z,1.31
2022-08-27T16:27:05.806Z,1.22
2022-08-27T16:29:32.158Z,1.38
2022-08-27T16:32:01.260Z,1.43
2022-08-27T16:34:27.927Z,1.43
2022-08-27T16:36:54.274Z,1.28
2022-08-27T16:39:20.635Z,1.30
2022-08-27T16:41:47.015Z,1.33
2022-08-27T16:44:13.354Z,1.38
2022-08-27T16:46:39.768Z,1.32
2022-08-27T16:49:06.144Z,1.36
2022-08-27T16:51:32.628Z,1.34
2022-08-27T16:53:59.502Z,1.39
2022-08-27T16:56:26.181Z,1.36
2022-08-27T16:58:54.857Z,1.35
2022-08-27T17:01:21.223Z,1.33
2022-08-27T17:04:07.471Z,1.30
2022-08-27T17:06:33.942Z,1.28
2022-08-27T17:09:01.547Z,1.40
2022-08-27T17:11:27.890Z,1.25
2022-08-27T17:13:54.235Z,1.19
2022-08-27T17:16:20.615Z,1.19
2022-08-27T17:18:46.982Z,1.34
2022-08-27T17:21:13.329Z,1.33
2022-08-27T17:23:39.696Z,1.22
2022-08-27T17:26:06.050Z,1.29
2022-08-27T17:28:32.413Z,1.28
2022-08-27T17:30:58.823Z,1.36
2022-08-27T17:33:25.234Z,1.46
2022-08-27T17:35:51.596Z,1.34
2022-08-27T17:38:17.941Z,1.35
2022-08-27T17:40:44.288Z,1.18
2022-08-27T17:43:10.627Z,1.31
2022-08-27T17:45:39.761Z,1.32
2022-08-27T17:48:12.236Z,1.31
2022-08-27T17:50:40.542Z,1.19
2022-08-27T17:53:06.898Z,1.43
2022-08-27T17:55:33.249Z,1.46
2022-08-27T17:57:59.594Z,1.19
2022-08-27T18:00:25.958Z,1.16
2022-08-27T18:02:52.311Z,1.27
2022-08-27T18:05:18.708Z,1.09
2022-08-27T18:07:45.081Z,1.27
2022-08-27T18:10:11.423Z,1.16
2022-08-27T18:12:37.773Z,1.24
2022-08-27T18:15:04.124Z,1.26
2022-08-27T18:17:30.470Z,1.25
2022-08-27T18:19:58.021Z,1.26
2022-08-27T18:22:26.199Z,1.28
2022-08-27T18:24:52.559Z,1.23
2022-08-27T18:27:18.908Z,1.17
2022-08-27T18:29:45.258Z,1.12
2022-08-27T18:32:16.350Z,1.39
2022-08-27T18:34:44.188Z,1.13
2022-08-27T18:37:10.535Z,1.11
2022-08-27T18:39:39.590Z,1.29
2022-08-27T18:42:06.154Z,1.20
2022-08-27T18:44:32.523Z,1.07
2022-08-27T18:46:58.888Z,1.26
2022-08-27T18:49:25.239Z,1.19
2022-08-27T18:51:52.781Z,1.17
2022-08-27T18:54:19.231Z,1.12
2022-08-27T18:56:45.599Z,1.32
2022-08-27T18:59:11.948Z,1.29
2022-08-27T19:01:38.376Z,1.22
2022-08-27T19:04:04.822Z,1.26
2022-08-27T19:06:31.174Z,1.22
2022-08-27T19:08:57.519Z,1.12
2022-08-27T19:11:23.865Z,1.09
2022-08-27T19:13:50.762Z,1.28
2022-08-27T19:16:17.432Z,1.27
2022-08-27T19:18:43.890Z,1.16
2022-08-27T19:21:10.250Z,1.22
2022-08-27T19:23:36.598Z,1.17
2022-08-27T19:26:02.954Z,1.36
2022-08-27T19:28:29.307Z,1.09
2022-08-27T19:30:55.658Z,1.14
2022-08-27T19:33:22.033Z,1.16
2022-08-27T19:35:48.383Z,1.16
2022-08-27T19:38:14.770Z,1.09
2022-08-27T19:40:41.110Z,1.31
2022-08-27T19:43:07.470Z,1.22
2022-08-27T19:45:33.833Z,1.20
2022-08-27T19:48:00.723Z,1.16
2022-08-27T19:50:27.071Z,1.27
2022-08-27T19:52:53.463Z,1.17
2022-08-27T19:55:19.819Z,1.23
2022-08-27T19:57:46.199Z,1.19
2022-08-27T20:00:12.596Z,1.21
2022-08-27T20:02:38.976Z,1.03
2022-08-27T20:05:17.988Z,1.37
2022-08-27T20:07:44.991Z,1.13
2022-08-27T20:10:11.340Z,1.15
2022-08-27T20:12:37.716Z,1.21
2022-08-27T20:15:04.075Z,1.13
2022-08-27T20:17:30.432Z,1.12
2022-08-27T20:19:56.781Z,1.14
2022-08-27T20:22:23.142Z,1.17
2022-08-27T20:24:49.494Z,1.32
2022-08-27T20:27:15.846Z,1.35
2022-08-27T20:29:42.194Z,1.15
2022-08-27T20:32:08.601Z,1.20
2022-08-27T20:34:34.950Z,1.16
2022-08-27T20:37:01.305Z,1.01
2022-08-27T20:39:27.698Z,1.18
2022-08-27T20:41:54.063Z,1.25
2022-08-27T20:44:20.422Z,1.18
2022-08-27T20:46:48.959Z,1.17
2022-08-27T20:49:18.635Z,1.19
2022-08-27T20:51:51.139Z,1.09
2022-08-27T20:54:29.822Z,1.18
2022-08-27T20:56:56.166Z,1.17
2022-08-27T20:59:22.509Z,1.04
2022-08-27T21:01:48.937Z,1.24
2022-08-27T21:04:15.333Z,1.19
2022-08-27T21:06:41.673Z,1.09
2022-08-27T21:09:08.017Z,1.21
2022-08-27T21:11:34.367Z,1.15
2022-08-27T21:14:00.753Z,1.00
2022-08-27T21:16:27.130Z,1.07
2022-08-27T21:18:53.555Z,1.27
2022-08-27T21:21:20.031Z,1.29
2022-08-27T21:23:46.401Z,1.14
2022-08-27T21:26:12.771Z,1.16
2022-08-27T21:28:39.137Z,1.16
2022-08-27T21:31:05.535Z,1.14
2022-08-27T21:33:31.928Z,1.17
2022-08-27T21:36:02.427Z,1.16
2022-08-27T21:38:28.769Z,1.05
2022-08-27T21:40:55.105Z,1.21
2022-08-27T21:43:21.454Z,1.29
2022-08-27T21:45:47.805Z,1.17
2022-08-27T21:48:14.289Z,1.12
2022-08-27T21:50:40.742Z,1.20
2022-08-27T21:53:07.103Z,1.27
2022-08-27T21:55:33.456Z,1.25
2022-08-27T21:57:59.822Z,1.26
2022-08-27T22:00:26.323Z,1.30
2022-08-27T22:02:52.816Z,1.35
2022-08-27T22:05:19.217Z,1.40
2022-08-27T22:07:45.570Z,1.34
2022-08-27T22:10:11.939Z,1.42
2022-08-27T22:12:38.298Z,1.21
2022-08-27T22:15:04.661Z,1.24
2022-08-27T22:17:31.015Z,1.28
2022-08-27T22:19:57.368Z,1.36
2022-08-27T22:22:23.718Z,1.22
2022-08-27T22:24:56.799Z,1.24
2022-08-27T22:27:23.166Z,1.16
2022-08-27T22:29:49.519Z,1.28
2022-08-27T22:32:15.866Z,1.48
2022-08-27T22:34:42.211Z,1.44
2022-08-27T22:37:08.575Z,1.33
2022-08-27T22:39:34.929Z,1.37
2022-08-27T22:42:01.260Z,1.39
2022-08-27T22:44:27.611Z,1.31
2022-08-27T22:46:54.021Z,1.40
2022-08-27T22:49:20.413Z,1.54
2022-08-27T22:51:46.758Z,1.31
2022-08-27T22:54:13.101Z,1.25
2022-08-27T22:56:39.456Z,1.28
2022-08-27T22:59:07.369Z,1.42
2022-08-27T23:01:33.940Z,1.32
2022-08-27T23:04:00.415Z,1.36
2022-08-27T23:06:26.867Z,1.47
2022-08-27T23:08:53.229Z,1.45
2022-08-27T23:11:19.581Z,1.57
2022-08-27T23:13:45.938Z,1.38
2022-08-27T23:16:12.392Z,1.44
2022-08-27T23:18:38.777Z,1.43
2022-08-27T23:21:05.135Z,1.21
2022-08-27T23:23:31.649Z,1.61
2022-08-27T23:25:58.007Z,1.56
2022-08-27T23:28:24.409Z,1.54
2022-08-27T23:30:50.930Z,1.60
2022-08-27T23:33:17.359Z,1.44
2022-08-27T23:35:43.721Z,1.56
2022-08-27T23:38:10.066Z,1.55
2022-08-27T23:40:36.487Z,1.62
2022-08-27T23:43:02.897Z,1.59
2022-08-27T23:45:29.261Z,1.62
2022-08-27T23:47:55.627Z,1.56
2022-08-27T23:50:21.986Z,1.65
2022-08-27T23:52:55.414Z,1.60
2022-08-27T23:55:21.798Z,1.45
2022-08-27T23:57:48.142Z,1.53
